Time;durP1;ratioP1;P1;durP2;ratioP2;P2;SDS_P1;SDS_P2;PMS_P1;PMS_P2;Temp;Humidity;BMP_temperature;BMP_pressure;BME280_temperature;BME280_humidity;BME280_pressure;Samples;Min_cycle;Max_cycle;Signal;HPM_P1;HPM_P2
2022/10/04 00:01:50;;;;;;;22.40;13.33;;;13.10;94.80;;;;;;5115143;28;20603;-73
2022/10/04 00:04:15;;;;;;;19.57;12.10;;;13.00;94.30;;;;;;5096736;28;20211;-73
2022/10/04 00:07:22;;;;;;;16.20;11.30;;;12.90;96.60;;;;;;5096268;28;20179;-72
2022/10/04 00:10:06;;;;;;;12.97;10.37;;;12.90;96.50;;;;;;5110803;28;20191;-73
2022/10/04 00:12:39;;;;;;;18.50;11.03;;;12.80;97.70;;;;;;5115175;28;20255;-73
2022/10/04 00:15:19;;;;;;;21.30;11.43;;;12.80;99.40;;;;;;5115113;28;20630;-73
2022/10/04 00:18:09;;;;;;;17.73;11.50;;;12.80;99.90;;;;;;5115087;28;20167;-73
2022/10/04 00:20:50;;;;;;;20.87;11.93;;;12.80;99.90;;;;;;5114550;28;20167;-73
2022/10/04 00:23:34;;;;;;;17.77;11.40;;;12.80;99.90;;;;;;5114627;28;20198;-73
2022/10/04 00:26:05;;;;;;;17.37;11.60;;;12.70;99.80;;;;;;5114828;28;20171;-72
2022/10/04 00:28:38;;;;;;;16.27;11.60;;;12.70;99.90;;;;;;5114419;28;20223;-73
2022/10/04 00:31:14;;;;;;;15.33;11.07;;;12.60;99.90;;;;;;5114737;28;20170;-72
2022/10/04 00:33:53;;;;;;;19.87;12.53;;;12.70;99.90;;;;;;5114623;28;20163;-73
2022/10/04 00:36:27;;;;;;;21.83;12.50;;;12.70;99.90;;;;;;5114237;28;20174;-73
2022/10/04 00:39:08;;;;;;;19.00;12.43;;;12.60;99.90;;;;;;5114637;28;20171;-72
2022/10/04 00:41:46;;;;;;;17.87;12.47;;;12.60;99.90;;;;;;5114297;28;20654;-73
2022/10/04 00:44:35;;;;;;;16.70;12.30;;;12.60;99.90;;;;;;5114291;28;20202;-72
2022/10/04 00:47:12;;;;;;;17.20;11.90;;;12.60;99.90;;;;;;5114474;28;20166;-73
2022/10/04 00:49:41;;;;;;;18.07;11.80;;;12.60;99.90;;;;;;5113986;28;20170;-73
2022/10/04 00:52:15;;;;;;;19.87;12.80;;;12.60;99.90;;;;;;5113656;28;20748;-73
2022/10/04 00:54:49;;;;;;;18.93;12.70;;;12.50;99.90;;;;;;5114252;28;20682;-73
2022/10/04 00:57:21;;;;;;;19.87;12.17;;;12.50;99.90;;;;;;5114096;28;20167;-73
2022/10/04 00:59:52;;;;;;;18.27;12.57;;;12.50;99.90;;;;;;5114243;28;20631;-73
2022/10/04 01:02:27;;;;;;;21.17;13.17;;;12.50;99.90;;;;;;5114049;28;20186;-73
2022/10/04 01:05:00;;;;;;;16.93;12.63;;;12.50;99.90;;;;;;5113576;28;20182;-73
2022/10/04 01:07:28;;;;;;;18.90;12.40;;;12.30;99.90;;;;;;5114237;28;20641;-72
2022/10/04 01:10:22;;;;;;;16.53;12.07;;;12.20;99.90;;;;;;5114045;28;20167;-73
2022/10/04 01:13:15;;;;;;;24.77;14.13;;;12.10;99.90;;;;;;5113469;28;20716;-73
2022/10/04 01:15:58;;;;;;;20.27;13.00;;;12.00;99.90;;;;;;5113780;28;20649;-73
2022/10/04 01:18:23;;;;;;;19.93;13.47;;;11.90;99.90;;;;;;5113583;28;20186;-72
2022/10/04 01:20:51;;;;;;;21.00;12.63;;;11.70;99.90;;;;;;5095617;28;20546;-73
2022/10/04 01:23:42;;;;;;;18.03;11.87;;;11.50;99.90;;;;;;5113691;28;20195;-73
2022/10/04 01:26:29;;;;;;;22.10;13.07;;;11.50;99.90;;;;;;5103947;28;20659;-73
2022/10/04 01:29:17;;;;;;;20.03;12.67;;;11.40;99.90;;;;;;5113574;28;20753;-73
2022/10/04 01:31:53;;;;;;;17.13;12.57;;;11.30;99.90;;;;;;5113596;28;20163;-73
2022/10/04 01:34:24;;;;;;;24.03;13.50;;;11.30;99.90;;;;;;5113623;28;20177;-73
2022/10/04 01:36:53;;;;;;;28.37;14.43;;;11.30;99.90;;;;;;5113662;28;20164;-73
2022/10/04 01:39:21;;;;;;;23.03;14.60;;;11.40;99.90;;;;;;5113642;28;20191;-73
2022/10/04 01:42:08;;;;;;;26.73;14.83;;;11.40;99.90;;;;;;5095360;28;20543;-73
2022/10/04 01:44:58;;;;;;;22.83;15.47;;;11.50;99.90;;;;;;5113387;28;20206;-73
2022/10/04 01:47:32;;;;;;;28.80;15.17;;;11.50;99.90;;;;;;5113234;28;20171;-73
2022/10/04 01:50:04;;;;;;;24.77;14.60;;;11.40;99.90;;;;;;5113525;28;20220;-72
2022/10/04 01:52:38;;;;;;;22.53;14.13;;;11.40;99.90;;;;;;5113521;28;20171;-73
2022/10/04 01:55:13;;;;;;;20.57;13.80;;;11.40;99.90;;;;;;5113670;28;20217;-72
2022/10/04 01:57:48;;;;;;;17.60;13.87;;;11.40;99.90;;;;;;5113739;28;20178;-72
2022/10/04 02:00:15;;;;;;;18.37;13.50;;;11.40;99.90;;;;;;5113422;28;20224;-72
2022/10/04 02:02:58;;;;;;;21.40;14.47;;;11.50;99.90;;;;;;5115102;28;20631;-73
2022/10/04 02:05:48;;;;;;;20.37;14.43;;;11.40;99.90;;;;;;5117387;28;20194;-74
2022/10/04 02:08:17;;;;;;;24.90;13.93;;;11.50;99.90;;;;;;5117521;28;20260;-74
2022/10/04 02:10:44;;;;;;;19.37;13.93;;;11.50;99.90;;;;;;5117435;28;20163;-75
2022/10/04 02:13:17;;;;;;;20.70;14.40;;;11.50;99.90;;;;;;5099083;28;20168;-75
2022/10/04 02:15:44;;;;;;;27.63;14.63;;;11.60;99.90;;;;;;5116820;28;20182;-76
2022/10/04 02:18:13;;;;;;;22.40;14.57;;;11.60;99.90;;;;;;5117218;28;20645;-75
2022/10/04 02:20:40;;;;;;;28.77;13.60;;;11.60;99.90;;;;;;5117122;28;20179;-75
2022/10/04 02:23:07;;;;;;;22.20;13.90;;;11.60;99.90;;;;;;5098915;28;20206;-75
2022/10/04 02:25:35;;;;;;;19.87;13.07;;;11.60;99.90;;;;;;5117080;28;20183;-74
2022/10/04 02:28:01;;;;;;;16.57;12.50;;;11.50;99.90;;;;;;5117163;28;20663;-73
2022/10/04 02:30:27;;;;;;;21.13;11.93;;;11.30;99.90;;;;;;5116287;28;20301;-73
2022/10/04 02:32:59;;;;;;;19.37;12.40;;;11.30;99.90;;;;;;5116915;28;20174;-73
2022/10/04 02:35:37;;;;;;;22.97;14.07;;;11.30;99.90;;;;;;5117006;28;20230;-73
2022/10/04 02:38:11;;;;;;;21.00;13.80;;;11.20;99.90;;;;;;5117009;28;20623;-73
2022/10/04 02:40:47;;;;;;;17.90;12.83;;;11.10;99.90;;;;;;5098228;28;20166;-72
2022/10/04 02:43:26;;;;;;;18.73;13.13;;;11.10;99.90;;;;;;5116662;28;20206;-73
2022/10/04 02:45:56;;;;;;;20.03;12.63;;;11.00;99.90;;;;;;5116501;28;20167;-73
2022/10/04 02:48:37;;;;;;;17.30;13.23;;;10.90;99.90;;;;;;5116913;28;20262;-73
2022/10/04 02:51:15;;;;;;;17.43;12.77;;;10.90;99.90;;;;;;5116341;28;20205;-73
2022/10/04 02:54:05;;;;;;;20.37;12.93;;;10.80;99.90;;;;;;5116555;28;20250;-73
2022/10/04 02:56:32;;;;;;;18.83;13.50;;;10.70;99.90;;;;;;5074685;28;20206;-73
2022/10/04 02:59:03;;;;;;;18.57;14.00;;;10.70;99.90;;;;;;5116727;28;20163;-73
2022/10/04 03:01:57;;;;;;;20.90;14.37;;;10.70;99.90;;;;;;5116061;28;20195;-73
2022/10/04 03:04:26;;;;;;;22.23;14.10;;;10.70;99.90;;;;;;5113056;28;20215;-73
2022/10/04 03:06:54;;;;;;;24.53;13.93;;;10.70;99.90;;;;;;5098088;28;20195;-73
2022/10/04 03:09:22;;;;;;;20.80;14.07;;;10.60;99.90;;;;;;5116396;28;20181;-73
2022/10/04 03:11:49;;;;;;;26.40;16.27;;;10.60;99.90;;;;;;5116032;28;20262;-73
2022/10/04 03:14:24;;;;;;;26.27;16.27;;;10.60;99.90;;;;;;5115065;28;20167;-73
2022/10/04 03:16:53;;;;;;;24.23;16.53;;;10.60;99.90;;;;;;5116126;28;20235;-73
2022/10/04 03:19:21;;;;;;;27.30;16.00;;;10.70;99.90;;;;;;5115976;28;20175;-73
2022/10/04 03:21:51;;;;;;;28.17;17.07;;;10.70;99.90;;;;;;5115853;28;20182;-73
2022/10/04 03:24:21;;;;;;;27.13;16.40;;;10.90;99.90;;;;;;5115756;28;20203;-73
2022/10/04 03:26:53;;;;;;;29.37;16.63;;;11.00;99.90;;;;;;5115783;28;20708;-73
2022/10/04 03:29:22;;;;;;;24.77;13.37;;;11.00;99.90;;;;;;5115237;28;20227;-73
2022/10/04 03:31:51;;;;;;;19.90;14.10;;;11.10;99.90;;;;;;5115704;28;20236;-73
2022/10/04 03:34:21;;;;;;;20.43;11.87;;;11.10;99.90;;;;;;5115801;28;20252;-72
2022/10/04 03:36:58;;;;;;;15.53;10.07;;;11.10;99.90;;;;;;5115370;28;20238;-72
2022/10/04 03:39:39;;;;;;;18.17;11.40;;;11.10;99.90;;;;;;5115955;28;20179;-72
2022/10/04 03:42:10;;;;;;;17.97;10.43;;;11.20;99.90;;;;;;5115214;28;20213;-72
2022/10/04 03:44:36;;;;;;;12.80;8.80;;;11.20;99.90;;;;;;5114750;28;20213;-72
2022/10/04 03:47:12;;;;;;;14.17;9.03;;;11.20;99.90;;;;;;5115252;28;20170;-72
2022/10/04 03:49:40;;;;;;;15.03;9.53;;;11.30;99.90;;;;;;5115467;28;20201;-72
2022/10/04 03:52:12;;;;;;;12.57;8.80;;;11.40;99.90;;;;;;5115261;28;20224;-72
2022/10/04 03:54:38;;;;;;;17.43;9.13;;;11.40;99.90;;;;;;5114982;28;20195;-73
2022/10/04 03:57:11;;;;;;;17.40;10.30;;;11.30;99.90;;;;;;5114872;28;20198;-72
2022/10/04 03:59:37;;;;;;;14.30;9.30;;;11.30;99.90;;;;;;5114641;28;20683;-72
2022/10/04 04:02:10;;;;;;;12.87;8.87;;;11.30;99.90;;;;;;5114844;28;20175;-72
2022/10/04 04:04:49;;;;;;;17.93;9.70;;;11.30;99.90;;;;;;5115062;28;20285;-73
2022/10/04 04:07:27;;;;;;;18.07;9.30;;;11.30;99.90;;;;;;5114550;28;20163;-72
2022/10/04 04:09:59;;;;;;;14.03;8.70;;;11.30;99.90;;;;;;5114895;28;20690;-72
2022/10/04 04:12:48;;;;;;;13.90;9.83;;;11.40;99.90;;;;;;5114377;28;20175;-73
2022/10/04 04:15:15;;;;;;;14.17;9.23;;;11.40;99.90;;;;;;5066209;28;20176;-73
2022/10/04 04:17:50;;;;;;;16.47;10.10;;;11.40;99.90;;;;;;5096264;28;20171;-73
2022/10/04 04:20:29;;;;;;;14.57;9.50;;;11.40;99.90;;;;;;5114700;28;20163;-73
2022/10/04 04:23:02;;;;;;;13.80;9.30;;;11.40;99.90;;;;;;5114295;28;20195;-73
2022/10/04 04:25:32;;;;;;;14.60;9.20;;;11.40;99.90;;;;;;5113357;28;20167;-73
2022/10/04 04:28:12;;;;;;;17.47;9.37;;;11.40;99.90;;;;;;5113604;28;20607;-73
2022/10/04 04:30:43;;;;;;;16.47;9.33;;;11.30;99.90;;;;;;5073704;28;20192;-73
2022/10/04 04:33:17;;;;;;;14.37;9.57;;;11.20;99.90;;;;;;5072800;28;20510;-73
2022/10/04 04:35:43;;;;;;;14.73;9.43;;;11.20;99.90;;;;;;5073728;28;20187;-73
2022/10/04 04:38:23;;;;;;;16.80;10.10;;;11.20;99.90;;;;;;5073875;28;20176;-73
2022/10/04 04:40:54;;;;;;;18.03;9.10;;;11.30;99.90;;;;;;5072984;28;20188;-73
2022/10/04 04:43:23;;;;;;;20.23;9.87;;;11.30;99.90;;;;;;5073038;28;20212;-73
2022/10/04 04:45:49;;;;;;;13.77;9.83;;;11.30;99.90;;;;;;5073181;28;20223;-73
2022/10/04 04:48:17;;;;;;;20.20;10.13;;;11.30;99.90;;;;;;5072883;28;20176;-74
2022/10/04 04:50:55;;;;;;;16.37;9.50;;;11.30;99.90;;;;;;5073362;28;20165;-74
2022/10/04 04:53:31;;;;;;;20.77;10.00;;;11.40;99.90;;;;;;5073204;28;20164;-73
2022/10/04 04:56:00;;;;;;;17.77;10.40;;;11.40;99.90;;;;;;5072655;28;20161;-73
2022/10/04 04:58:36;;;;;;;15.00;10.43;;;11.40;99.90;;;;;;5073150;28;20164;-73
2022/10/04 05:01:03;;;;;;;15.27;10.43;;;11.40;99.90;;;;;;5073295;28;20172;-73
2022/10/04 05:03:30;;;;;;;15.57;10.33;;;11.40;99.90;;;;;;5072980;28;20254;-72
2022/10/04 05:05:59;;;;;;;17.77;9.60;;;11.40;99.90;;;;;;5054746;28;20485;-72
2022/10/04 05:08:27;;;;;;;18.17;10.47;;;11.40;99.90;;;;;;5072431;28;20171;-72
2022/10/04 05:11:08;;;;;;;12.97;10.37;;;11.40;99.90;;;;;;5072225;28;20210;-72
2022/10/04 05:13:55;;;;;;;14.13;10.13;;;11.40;99.90;;;;;;5054508;28;20586;-74
2022/10/04 05:16:37;;;;;;;19.07;10.33;;;11.40;99.90;;;;;;5072576;28;20632;-74
2022/10/04 05:19:21;;;;;;;19.83;10.70;;;11.40;99.90;;;;;;5072518;28;20251;-74
2022/10/04 05:21:48;;;;;;;19.60;11.37;;;11.40;99.90;;;;;;5072419;28;20715;-72
2022/10/04 05:24:20;;;;;;;13.47;10.50;;;11.40;99.90;;;;;;5071858;28;20211;-74
2022/10/04 05:26:50;;;;;;;17.03;10.73;;;11.40;99.90;;;;;;5072344;28;20164;-74
2022/10/04 05:29:18;;;;;;;13.20;8.97;;;11.40;99.90;;;;;;5071881;28;20767;-74
2022/10/04 05:32:26;;;;;;;19.57;9.27;;;11.40;99.90;;;;;;5072287;28;20176;-72
2022/10/04 05:34:53;;;;;;;20.87;9.77;;;11.40;99.90;;;;;;5071724;28;20172;-74
2022/10/04 05:37:28;;;;;;;15.37;8.83;;;11.40;99.90;;;;;;5071558;28;20184;-74
2022/10/04 05:40:12;;;;;;;19.40;9.73;;;11.40;99.90;;;;;;5071814;28;20168;-74
2022/10/04 05:42:44;;;;;;;15.80;8.30;;;11.40;99.90;;;;;;5071949;28;20200;-74
2022/10/04 05:45:26;;;;;;;21.43;8.40;;;11.40;99.90;;;;;;5071759;28;20172;-74
2022/10/04 05:47:57;;;;;;;22.47;8.80;;;11.40;99.90;;;;;;5071281;28;20175;-73
2022/10/04 05:50:32;;;;;;;21.40;9.80;;;11.40;99.90;;;;;;5071598;28;20489;-74
2022/10/04 05:53:34;;;;;;;17.40;9.17;;;11.30;99.90;;;;;;5071392;28;20165;-73
2022/10/04 05:56:36;;;;;;;14.63;9.23;;;11.20;99.90;;;;;;5071565;28;20176;-74
2022/10/04 05:59:30;;;;;;;15.07;8.03;;;11.10;99.90;;;;;;5071037;28;20168;-74
2022/10/04 06:02:12;;;;;;;16.20;9.00;;;11.20;99.90;;;;;;5071587;28;20266;-73
2022/10/04 06:04:59;;;;;;;17.67;8.97;;;11.20;99.90;;;;;;5071521;28;20290;-74
2022/10/04 06:07:33;;;;;;;15.83;8.53;;;11.20;99.90;;;;;;5071519;28;20164;-72
2022/10/04 06:10:38;;;;;;;17.33;8.93;;;11.20;99.90;;;;;;5070994;28;20222;-73
2022/10/04 06:13:29;;;;;;;20.57;8.40;;;11.10;99.90;;;;;;5051830;28;20637;-75
2022/10/04 06:16:36;;;;;;;16.87;9.03;;;11.00;99.90;;;;;;5071357;28;20176;-75
2022/10/04 06:19:26;;;;;;;23.57;9.80;;;11.00;99.90;;;;;;5047899;28;20652;-74
2022/10/04 06:22:14;;;;;;;21.13;10.50;;;11.20;99.90;;;;;;5071247;28;20169;-75
2022/10/04 06:24:43;;;;;;;18.37;10.10;;;11.30;99.90;;;;;;5053226;28;20321;-74
2022/10/04 06:27:44;;;;;;;19.60;9.60;;;11.40;99.90;;;;;;5070746;28;20210;-74
2022/10/04 06:30:17;;;;;;;20.97;10.10;;;11.50;99.90;;;;;;5103138;28;20211;-74
2022/10/04 06:33:23;;;;;;;20.30;10.83;;;11.70;99.90;;;;;;5112284;28;20771;-74
2022/10/04 06:36:09;;;;;;;19.83;9.57;;;11.80;99.90;;;;;;5111490;28;20166;-75
2022/10/04 06:38:53;;;;;;;14.80;8.00;;;12.10;99.90;;;;;;5111654;28;20531;-74
2022/10/04 06:41:39;;;;;;;14.00;7.80;;;12.30;99.90;;;;;;5111674;28;20239;-74
2022/10/04 06:44:29;;;;;;;15.07;7.37;;;12.40;90.00;;;;;;5096912;28;20229;-74
2022/10/04 06:47:14;;;;;;;13.00;7.13;;;12.60;72.50;;;;;;5112069;28;20259;-71
2022/10/04 06:49:45;;;;;;;16.87;7.67;;;12.60;61.40;;;;;;5117392;27;20284;-71
2022/10/04 06:52:20;;;;;;;19.83;7.97;;;12.90;68.20;;;;;;5123214;27;20186;-71
2022/10/04 06:55:01;;;;;;;16.97;7.93;;;13.30;66.00;;;;;;5134921;27;20174;-73
2022/10/04 06:57:45;;;;;;;15.80;8.67;;;14.00;33.60;;;;;;5136249;27;20167;-73
2022/10/04 07:00:13;;;;;;;9.67;6.23;;;15.30;17.50;;;;;;5130958;27;20178;-74
2022/10/04 07:02:42;;;;;;;7.73;5.97;;;16.80;1.00;;;;;;5124398;27;20177;-77
2022/10/04 07:05:17;;;;;;;15.00;6.47;;;17.80;1.00;;;;;;5134086;27;20261;-79
2022/10/04 07:07:47;;;;;;;8.87;5.80;;;18.30;1.00;;;;;;5135672;27;20158;-75
2022/10/04 07:10:29;;;;;;;8.80;5.32;;;18.70;1.00;;;;;;5135696;27;20402;-75
2022/10/04 07:13:17;;;;;;;9.30;6.03;;;19.50;99.60;;;;;;5135410;27;20567;-75
2022/10/04 07:16:17;;;;;;;10.60;5.72;;;20.40;97.10;;;;;;5135291;27;20171;-75
2022/10/04 07:19:11;;;;;;;9.20;5.63;;;21.40;95.40;;;;;;5134877;27;20158;-77
2022/10/04 07:21:58;;;;;;;9.68;5.88;;;22.30;94.10;;;;;;5134146;27;20235;-73
2022/10/04 07:24:33;;;;;;;8.90;5.47;;;23.60;90.00;;;;;;5116915;27;20210;-74
2022/10/04 07:27:01;;;;;;;6.20;5.10;;;23.50;87.70;;;;;;5134826;27;20192;-74
2022/10/04 07:29:32;;;;;;;11.30;6.10;;;24.40;81.70;;;;;;5112413;27;20223;-78
2022/10/04 07:32:01;;;;;;;10.50;6.00;;;25.00;77.30;;;;;;5059511;28;20168;-77
2022/10/04 07:34:30;;;;;;;9.57;5.65;;;24.30;78.70;;;;;;5094187;28;20251;-75
2022/10/04 07:36:57;;;;;;;8.35;5.85;;;24.70;76.40;;;;;;5093802;28;20619;-75
2022/10/04 07:39:53;;;;;;;7.65;5.63;;;25.10;73.40;;;;;;5093675;28;20551;-73
2022/10/04 07:42:28;;;;;;;10.13;6.60;;;25.70;70.20;;;;;;5075781;28;20655;-75
2022/10/04 07:45:05;;;;;;;7.63;5.50;;;26.80;66.50;;;;;;5094289;28;20289;-76
2022/10/04 07:47:31;;;;;;;10.13;6.20;;;27.40;62.50;;;;;;5093957;28;20160;-75
2022/10/04 07:49:57;;;;;;;8.45;5.80;;;28.10;60.20;;;;;;5093957;28;20517;-75
2022/10/04 07:52:40;;;;;;;8.23;5.25;;;28.30;56.30;;;;;;5074642;28;20175;-75
2022/10/04 07:55:27;;;;;;;8.25;5.90;;;27.10;56.50;;;;;;5093599;28;20168;-75
2022/10/04 07:58:17;;;;;;;11.30;5.78;;;27.80;55.90;;;;;;5093997;28;20680;-73
2022/10/04 08:00:55;;;;;;;9.02;6.22;;;27.20;51.70;;;;;;5093199;28;20304;-74
2022/10/04 08:03:51;;;;;;;7.03;5.47;;;27.40;31.10;;;;;;5093170;28;20677;-76
2022/10/04 08:06:36;;;;;;;9.93;5.10;;;27.10;99.90;;;;;;5093951;28;20170;-76
2022/10/04 08:09:23;;;;;;;8.98;5.35;;;27.10;99.90;;;;;;5093828;28;20152;-74
2022/10/04 08:12:15;;;;;;;13.02;5.93;;;26.50;99.90;;;;;;5093414;28;20249;-74
2022/10/04 08:15:10;;;;;;;9.32;5.75;;;26.00;99.90;;;;;;5093568;28;20238;-75
2022/10/04 08:17:45;;;;;;;11.10;6.05;;;24.90;99.90;;;;;;5075002;28;20699;-74
2022/10/04 08:20:32;;;;;;;10.07;6.70;;;24.30;1.00;;;;;;5093053;28;20167;-74
2022/10/04 08:23:07;;;;;;;8.02;6.25;;;24.20;1.00;;;;;;5093488;28;20187;-74
2022/10/04 08:25:35;;;;;;;10.70;6.65;;;23.70;1.00;;;;;;5092649;28;20171;-75
2022/10/04 08:31:15;;;;;;;8.80;6.78;;;23.30;99.90;;;;;;5093541;28;20249;-76
2022/10/04 08:33:52;;;;;;;8.40;5.50;;;23.70;72.90;;;;;;5092603;28;20210;-77
2022/10/04 08:36:33;;;;;;;10.40;7.25;;;23.30;74.40;;;;;;5093134;28;20704;-74
2022/10/04 08:39:00;;;;;;;9.55;5.55;;;25.20;71.40;;;;;;5093223;28;20199;-73
2022/10/04 08:41:28;;;;;;;7.95;6.07;;;26.20;59.20;;;;;;5093523;28;20206;-77
2022/10/04 08:44:13;;;;;;;12.73;6.20;;;25.70;64.60;;;;;;5093554;28;20210;-76
2022/10/04 08:47:01;;;;;;;11.05;6.10;;;25.90;64.70;;;;;;5092539;28;20182;-74
2022/10/04 08:49:52;;;;;;;12.07;6.20;;;26.20;64.00;;;;;;5093080;28;20259;-74
2022/10/04 08:52:39;;;;;;;11.98;6.65;;;25.60;63.50;;;;;;5074989;28;20175;-77
2022/10/04 08:55:42;;;;;;;10.57;6.75;;;24.40;1.00;;;;;;5092636;28;20164;-76
2022/10/04 08:58:25;;;;;;;8.90;6.15;;;23.80;73.10;;;;;;5133445;27;20174;-78
2022/10/04 09:01:09;;;;;;;8.88;5.90;;;22.80;79.20;;;;;;5099967;27;20170;-74
2022/10/04 09:04:00;;;;;;;8.00;5.75;;;23.40;79.70;;;;;;5133157;27;20199;-74
2022/10/04 09:06:51;;;;;;;9.00;6.03;;;24.20;76.10;;;;;;5133208;27;20180;-76
2022/10/04 09:09:45;;;;;;;9.60;5.95;;;24.70;72.80;;;;;;5134179;27;20163;-75
2022/10/04 09:12:43;;;;;;;10.63;6.00;;;24.70;68.30;;;;;;5132719;27;20171;-74
2022/10/04 09:15:35;;;;;;;13.63;6.10;;;24.40;71.00;;;;;;5133793;27;20196;-74
2022/10/04 09:18:20;;;;;;;8.77;5.75;;;24.60;73.60;;;;;;5126463;27;20215;-73
2022/10/04 09:21:10;;;;;;;10.75;6.00;;;23.80;75.90;;;;;;5100523;28;20301;-76
2022/10/04 09:23:44;;;;;;;10.75;6.00;;;24.20;75.90;;;;;;5089880;28;20203;-76
2022/10/04 09:26:20;;;;;;;10.18;6.00;;;25.30;69.30;;;;;;5100767;28;20213;-75
2022/10/04 09:28:58;;;;;;;12.65;6.13;;;25.50;67.80;;;;;;5112082;28;20225;-73
2022/10/04 09:31:41;;;;;;;13.82;6.47;;;26.10;68.40;;;;;;5112457;28;20171;-76
2022/10/04 09:34:21;;;;;;;9.80;5.70;;;25.80;67.40;;;;;;5105061;28;20175;-79
2022/10/04 09:37:14;;;;;;;8.95;5.78;;;26.50;67.70;;;;;;5112657;28;20259;-77
2022/10/04 09:39:39;;;;;;;9.20;5.18;;;26.00;67.30;;;;;;5112524;28;20205;-75
2022/10/04 09:42:40;;;;;;;9.65;6.65;;;25.00;36.30;;;;;;5112754;28;20689;-76
2022/10/04 09:45:43;;;;;;;6.78;5.18;;;26.40;68.30;;;;;;5026680;28;20263;-77
2022/10/04 09:48:35;;;;;;;12.95;5.55;;;26.70;63.90;;;;;;5093119;28;20199;-76
2022/10/04 09:51:13;;;;;;;8.32;4.95;;;25.40;68.40;;;;;;5104797;28;20627;-79
2022/10/04 09:54:06;;;;;;;6.50;4.50;;;25.80;69.70;;;;;;5112394;28;20210;-75
2022/10/04 09:56:53;;;;;;;10.82;4.60;;;25.40;70.30;;;;;;5109052;28;20171;-75
2022/10/04 09:59:27;;;;;;;7.85;4.53;;;26.20;68.70;;;;;;5112799;28;20191;-77
2022/10/04 10:01:59;;;;;;;5.28;4.72;;;25.70;69.50;;;;;;5101652;28;20179;-75
2022/10/04 10:04:39;;;;;;;7.90;5.15;;;25.80;69.10;;;;;;5112864;28;20210;-75
2022/10/04 10:07:08;;;;;;;9.20;4.90;;;26.10;66.00;;;;;;5112428;28;20189;-74
2022/10/04 10:15:57;;;;;;;9.60;5.30;;;26.30;68.10;;;;;;5110709;28;20186;-76
2022/10/04 10:18:41;;;;;;;9.27;5.60;;;26.70;66.60;;;;;;5110779;28;20726;-76
2022/10/04 10:21:35;;;;;;;7.70;4.82;;;26.60;66.40;;;;;;5110560;28;20176;-76
2022/10/04 10:24:13;;;;;;;10.52;5.25;;;26.90;65.00;;;;;;5112379;28;20203;-75
2022/10/04 10:26:47;;;;;;;6.57;5.40;;;26.90;64.60;;;;;;5100571;28;20182;-75
2022/10/04 10:29:38;;;;;;;10.70;6.05;;;27.20;64.90;;;;;;5114265;28;20224;-76
2022/10/04 10:32:26;;;;;;;11.63;5.30;;;27.00;64.80;;;;;;5114137;28;20195;-77
2022/10/04 10:34:54;;;;;;;9.60;5.60;;;26.90;64.70;;;;;;5114189;28;20171;-76
2022/10/04 10:37:51;;;;;;;9.40;5.38;;;25.70;67.00;;;;;;5110325;28;20178;-76
2022/10/04 10:40:58;;;;;;;6.00;4.68;;;25.20;70.70;;;;;;5115294;28;20167;-75
2022/10/04 10:43:54;;;;;;;9.43;5.20;;;24.80;73.00;;;;;;5115523;28;20186;-75
2022/10/04 10:46:38;;;;;;;7.85;5.03;;;25.10;73.20;;;;;;5115589;28;20175;-77
2022/10/04 10:49:25;;;;;;;8.77;5.30;;;25.80;70.00;;;;;;5116059;28;20163;-78
2022/10/04 10:52:16;;;;;;;8.30;4.78;;;25.70;68.60;;;;;;5115031;28;20170;-77
2022/10/04 10:55:01;;;;;;;7.97;4.88;;;25.20;71.70;;;;;;5115520;28;20164;-75
2022/10/04 10:58:08;;;;;;;7.40;4.53;;;24.30;74.90;;;;;;5115673;28;20254;-75
2022/10/04 11:00:49;;;;;;;8.68;4.60;;;24.30;76.60;;;;;;5115781;28;20619;-77
2022/10/04 11:03:29;;;;;;;8.77;4.85;;;24.10;76.50;;;;;;5114982;28;20662;-77
2022/10/04 11:06:25;;;;;;;8.23;4.20;;;24.70;76.50;;;;;;5114349;28;20177;-74
2022/10/04 11:09:11;;;;;;;7.85;4.75;;;24.10;76.60;;;;;;5114789;28;20198;-75
2022/10/04 11:12:04;;;;;;;6.00;4.20;;;23.90;77.30;;;;;;5115520;28;20168;-77
2022/10/04 11:15:00;;;;;;;6.75;4.85;;;24.50;76.00;;;;;;5114221;28;20194;-79
2022/10/04 11:17:48;;;;;;;7.40;5.18;;;25.30;74.80;;;;;;5114994;28;20264;-75
2022/10/04 11:20:50;;;;;;;8.13;4.95;;;25.70;72.90;;;;;;5115180;28;20223;-77
2022/10/04 11:23:59;;;;;;;6.90;4.57;;;24.30;76.10;;;;;;5108871;28;20198;-76
2022/10/04 11:26:46;;;;;;;10.07;5.30;;;24.50;77.30;;;;;;5115077;28;20167;-73
2022/10/04 11:29:30;;;;;;;7.90;4.90;;;25.20;76.30;;;;;;5113336;28;20448;-76
2022/10/04 11:32:01;;;;;;;7.90;5.22;;;26.40;71.60;;;;;;5114273;28;20170;-74
2022/10/04 11:34:34;;;;;;;8.82;5.07;;;25.70;72.70;;;;;;5114336;28;20163;-76
2022/10/04 11:37:09;;;;;;;8.18;4.90;;;25.20;73.00;;;;;;5107475;28;20182;-75
2022/10/04 11:40:15;;;;;;;7.18;4.65;;;25.10;75.90;;;;;;5114373;28;20194;-75
2022/10/04 11:43:20;;;;;;;10.77;4.78;;;24.60;76.70;;;;;;5112253;28;20577;-75
2022/10/04 11:46:07;;;;;;;9.18;4.13;;;24.90;77.40;;;;;;5114888;28;20163;-74
2022/10/04 11:48:54;;;;;;;7.47;4.40;;;25.00;78.90;;;;;;5114011;28;20189;-76
2022/10/04 11:51:26;;;;;;;6.97;4.35;;;24.60;77.60;;;;;;5114567;28;20650;-74
2022/10/04 11:54:26;;;;;;;6.90;4.70;;;24.90;76.70;;;;;;5113838;28;20170;-74
2022/10/04 11:57:25;;;;;;;9.60;5.07;;;24.60;74.50;;;;;;5114257;28;20205;-74
2022/10/04 12:00:14;;;;;;;7.95;3.90;;;24.00;79.10;;;;;;5104778;28;20186;-74
2022/10/04 12:03:17;;;;;;;9.80;4.78;;;23.50;83.10;;;;;;5114658;28;20603;-73
2022/10/04 12:06:12;;;;;;;8.30;4.20;;;23.00;83.40;;;;;;5113989;28;20183;-75
2022/10/04 12:08:53;;;;;;;10.55;4.63;;;22.20;87.00;;;;;;5110219;28;20229;-75
2022/10/04 12:12:35;;;;;;;9.90;4.60;;;22.10;90.20;;;;;;5113010;28;20167;-77
2022/10/04 12:14:30;;;;;;;8.50;4.60;;;21.70;92.10;;;;;;5113920;28;20650;-74
2022/10/04 12:17:24;;;;;;;7.50;4.78;;;21.40;94.00;;;;;;5114354;28;20163;-76
2022/10/04 12:20:33;;;;;;;16.73;4.80;;;21.20;94.00;;;;;;5106765;28;20198;-74
2022/10/04 12:23:07;;;;;;;12.30;5.85;;;21.30;94.00;;;;;;5097005;28;20652;-72
2022/10/04 12:26:00;;;;;;;8.52;4.32;;;21.30;95.20;;;;;;5113080;28;20182;-74
2022/10/04 12:29:03;;;;;;;5.93;4.63;;;21.10;95.70;;;;;;5109419;28;20227;-76
2022/10/04 12:31:52;;;;;;;6.57;4.78;;;20.70;96.70;;;;;;5096808;28;20571;-73
2022/10/04 12:34:30;;;;;;;6.35;4.40;;;20.70;97.10;;;;;;5046633;28;20226;-74
2022/10/04 12:37:01;;;;;;;10.60;4.90;;;20.50;97.20;;;;;;5096956;28;20178;-73
2022/10/04 12:39:33;;;;;;;6.15;4.53;;;20.20;98.60;;;;;;5106298;28;20194;-74
2022/10/04 12:42:23;;;;;;;9.48;5.10;;;20.20;98.60;;;;;;5124935;27;20192;-75
2022/10/04 12:45:16;;;;;;;8.73;4.82;;;20.00;99.90;;;;;;5113398;27;20202;-75
2022/10/04 12:47:58;;;;;;;7.18;4.13;;;20.00;99.90;;;;;;5103810;28;20209;-74
2022/10/04 12:50:34;;;;;;;8.68;5.10;;;20.10;99.90;;;;;;5111702;28;20657;-75
2022/10/04 12:53:30;;;;;;;7.80;4.55;;;20.10;99.90;;;;;;5081428;28;20166;-75
2022/10/04 12:56:05;;;;;;;8.95;4.57;;;20.10;99.90;;;;;;5111095;28;20570;-73
2022/10/04 12:58:58;;;;;;;7.40;4.63;;;20.10;99.90;;;;;;5112557;28;20186;-73
2022/10/04 13:01:44;;;;;;;7.25;4.45;;;20.00;99.90;;;;;;5112518;28;20639;-73
2022/10/04 13:04:29;;;;;;;7.70;4.65;;;19.90;99.90;;;;;;5111603;28;20221;-73
2022/10/04 13:07:07;;;;;;;7.22;4.70;;;19.80;99.90;;;;;;5096162;28;20625;-73
2022/10/04 13:09:45;;;;;;;8.63;4.53;;;19.60;99.90;;;;;;5110888;28;20186;-74
2022/10/04 13:12:10;;;;;;;10.52;4.85;;;19.70;99.90;;;;;;5112068;28;20181;-74
2022/10/04 13:14:44;;;;;;;8.77;4.68;;;19.90;99.90;;;;;;5099860;28;20498;-74
2022/10/04 13:17:44;;;;;;;7.13;4.85;;;19.90;99.90;;;;;;5108691;28;20408;-75
2022/10/04 13:20:22;;;;;;;9.15;5.97;;;20.00;99.90;;;;;;5085065;28;20560;-75
2022/10/04 13:22:48;;;;;;;8.10;4.53;;;20.00;99.90;;;;;;5109974;28;20634;-75
2022/10/04 13:25:23;;;;;;;4.78;4.38;;;20.00;99.90;;;;;;5106464;28;20218;-74
2022/10/04 13:27:57;;;;;;;6.45;3.90;;;20.10;99.90;;;;;;5105842;28;20242;-74
2022/10/04 13:30:26;;;;;;;10.55;4.50;;;20.00;99.90;;;;;;5111276;28;20223;-75
2022/10/04 13:33:16;;;;;;;4.88;4.03;;;20.20;99.90;;;;;;5107871;28;20208;-75
2022/10/04 13:36:02;;;;;;;4.68;4.05;;;20.10;99.90;;;;;;5099964;28;20176;-73
2022/10/04 13:38:45;;;;;;;4.80;3.97;;;19.90;99.90;;;;;;5109574;28;20177;-83
2022/10/04 13:41:40;;;;;;;4.93;3.88;;;20.00;99.90;;;;;;5104518;28;20183;-75
2022/10/04 13:44:30;;;;;;;8.32;3.70;;;20.10;99.90;;;;;;5097088;28;20203;-75
2022/10/04 13:47:29;;;;;;;6.57;3.75;;;20.10;99.90;;;;;;5109033;28;20189;-74
2022/10/04 13:50:06;;;;;;;4.85;3.33;;;20.00;99.90;;;;;;5104939;28;20262;-73
2022/10/04 13:58:48;;;;;;;4.50;3.30;;;20.20;99.90;;;;;;5108162;28;20182;-74
2022/10/04 14:01:20;;;;;;;4.30;3.03;;;20.40;99.60;;;;;;5107769;28;20165;-75